Cincinnati, Ohio
Traffic Map
Current Weather Conditions
Cincinnati, Ohio
Broken Clouds
Broken Clouds
78°
Feels Like: 79°
Wind Chill: 78° Ceiling: 11000
Heat Index: 79° Visibility: 10mi
Dew Point: 57° Wind: 15mph
Humidity: 48% Direction: 260° (W)
Pressure: 30.03in Gusts: 22mph
Raw Report DataKLUK 302053Z 26013G19KT 10SM FEW055 FEW095 BKN110 26/14 A3003 RMK AO2 SLP165 T02560139 55007
Traffic Incident Summary
Active as of:
Severity:
Category:
InformationThere was an issue retrieving the traffic information for this location. Please try a different location or try again shortly.
Advertisements
Track Severe Weather on mobile